Time;durP1;ratioP1;P1;durP2;ratioP2;P2;SDS_P1;SDS_P2;PMS_P1;PMS_P2;Temp;Humidity;BMP_temperature;BMP_pressure;BME280_temperature;BME280_humidity;BME280_pressure;Samples;Min_cycle;Max_cycle;Signal;HPM_P1;HPM_P2
2022/03/16 00:01:30;;;;;;;92.42;52.35;;;;;;;4.31;79.24;101441.44;1681869;84;27474;-78
2022/03/16 00:03:56;;;;;;;88.85;51.85;;;;;;;4.33;79.34;101440.83;1683138;82;25910;-79
2022/03/16 00:06:22;;;;;;;87.62;51.88;;;;;;;4.34;79.30;101434.53;1677675;84;25857;-78
2022/03/16 00:08:48;;;;;;;90.42;52.73;;;;;;;4.36;79.35;101433.92;1683085;84;26196;-79
2022/03/16 00:11:14;;;;;;;87.35;49.80;;;;;;;4.40;79.42;101432.73;1682248;84;26149;-78
2022/03/16 00:13:41;;;;;;;86.60;50.55;;;;;;;4.42;79.40;101426.81;1682362;84;28318;-77
2022/03/16 00:16:08;;;;;;;87.50;50.90;;;;;;;4.44;79.35;101423.55;1686954;84;25993;-79
2022/03/16 00:18:35;;;;;;;83.87;48.83;;;;;;;4.44;79.32;101422.70;1680465;84;26119;-80
2022/03/16 00:21:01;;;;;;;89.97;50.40;;;;;;;4.40;79.15;101421.27;1678849;84;25781;-80
2022/03/16 00:23:28;;;;;;;93.00;50.95;;;;;;;4.40;79.18;101418.62;1681388;84;25981;-79
2022/03/16 00:25:54;;;;;;;89.58;50.98;;;;;;;4.37;79.18;101414.88;1682499;84;28278;-78
2022/03/16 00:28:20;;;;;;;86.17;51.08;;;;;;;4.36;79.15;101414.03;1681746;84;25785;-78
2022/03/16 00:30:47;;;;;;;92.27;51.48;;;;;;;4.36;79.16;101406.07;1681949;84;25794;-79
2022/03/16 00:33:15;;;;;;;87.17;50.95;;;;;;;4.38;79.38;101407.30;1684829;84;25996;-79
2022/03/16 00:35:43;;;;;;;88.03;51.37;;;;;;;4.39;79.43;101408.96;1688226;84;26658;-79
2022/03/16 00:38:13;;;;;;;94.07;53.20;;;;;;;4.39;79.40;101403.66;1684314;84;27546;-79
2022/03/16 00:40:39;;;;;;;97.80;53.60;;;;;;;4.40;79.48;101392.94;1681789;84;25946;-81
2022/03/16 00:43:05;;;;;;;86.25;52.75;;;;;;;4.42;79.46;101391.48;1684247;83;26044;-79
2022/03/16 00:45:32;;;;;;;90.17;54.18;;;;;;;4.44;79.42;101385.08;1696627;84;26205;-78
2022/03/16 00:48:01;;;;;;;93.97;53.98;;;;;;;4.48;79.46;101393.61;1696756;84;25786;-77
2022/03/16 00:50:27;;;;;;;97.42;55.52;;;;;;;4.48;79.44;101387.83;1698463;84;28391;-79
2022/03/16 00:52:54;;;;;;;99.05;56.28;;;;;;;4.48;79.54;101386.98;1694901;84;26352;-79
2022/03/16 00:55:20;;;;;;;94.92;55.55;;;;;;;4.47;79.56;101388.78;1698596;84;25754;-78
2022/03/16 00:57:47;;;;;;;96.00;55.65;;;;;;;4.48;79.48;101394.94;1695530;84;26662;-80
2022/03/16 01:00:14;;;;;;;108.50;54.40;;;;;;;4.50;79.48;101396.98;1692755;84;25758;-79
2022/03/16 01:02:40;;;;;;;101.38;57.38;;;;;;;4.54;79.55;101404.55;1696995;82;28563;-78
2022/03/16 01:05:07;;;;;;;97.67;56.70;;;;;;;4.54;79.56;101401.05;1695010;84;25979;-79
2022/03/16 01:07:33;;;;;;;103.25;59.45;;;;;;;4.54;79.49;101398.40;1691950;84;25864;-78
2022/03/16 01:09:59;;;;;;;92.40;54.85;;;;;;;4.52;79.57;101392.38;1698234;84;25835;-79
2022/03/16 01:12:26;;;;;;;100.07;57.17;;;;;;;4.50;79.50;101397.83;1695659;82;25842;-78
2022/03/16 01:14:52;;;;;;;97.65;55.45;;;;;;;4.48;79.59;101393.61;1698195;84;27466;-76
2022/03/16 01:17:18;;;;;;;102.42;59.65;;;;;;;4.44;79.54;101400.14;1694486;84;25759;-77
2022/03/16 01:19:44;;;;;;;95.57;54.77;;;;;;;4.39;79.57;101403.18;1696703;84;26575;-76
2022/03/16 01:22:11;;;;;;;96.82;55.33;;;;;;;4.35;79.59;101400.91;1695597;83;25939;-76
2022/03/16 01:24:37;;;;;;;102.35;55.52;;;;;;;4.27;79.56;101396.25;1698660;84;26578;-79
2022/03/16 01:27:04;;;;;;;100.33;56.10;;;;;;;4.19;79.79;101402.65;1696097;84;28087;-77
2022/03/16 01:29:31;;;;;;;102.27;57.80;;;;;;;4.14;79.96;101407.98;1695940;84;25833;-77
2022/03/16 01:31:58;;;;;;;104.43;59.63;;;;;;;4.14;80.32;101414.61;1695985;83;26402;-76
2022/03/16 01:34:24;;;;;;;101.33;56.30;;;;;;;4.14;80.39;101410.64;1698450;84;26261;-76
2022/03/16 01:36:51;;;;;;;106.25;58.08;;;;;;;4.12;80.35;101401.97;1692891;84;25796;-80
2022/03/16 01:39:19;;;;;;;103.75;61.23;;;;;;;4.08;80.34;101402.72;1696557;84;28392;-78
2022/03/16 01:41:49;;;;;;;107.43;60.50;;;;;;;4.08;80.56;101404.52;1695995;84;25897;-76
2022/03/16 01:44:17;;;;;;;109.70;61.77;;;;;;;4.10;80.79;101402.58;1690905;82;26015;-79
2022/03/16 01:46:43;;;;;;;113.55;64.35;;;;;;;4.11;80.84;101404.25;1687234;84;26368;-77
2022/03/16 01:49:10;;;;;;;110.80;63.28;;;;;;;4.10;80.82;101398.12;1687912;84;25878;-78
2022/03/16 01:51:36;;;;;;;113.17;64.62;;;;;;;4.11;80.91;101392.31;1690045;83;26899;-78
2022/03/16 01:54:03;;;;;;;113.35;63.68;;;;;;;4.11;81.01;101394.48;1674368;84;25954;-77
2022/03/16 01:56:30;;;;;;;106.37;61.83;;;;;;;4.12;81.08;101396.19;1679576;84;25370;-78
2022/03/16 01:58:59;;;;;;;115.77;62.65;;;;;;;4.14;81.15;101401.36;1684592;84;26199;-78
2022/03/16 02:01:25;;;;;;;117.80;64.95;;;;;;;4.17;81.04;101406.42;1684298;84;25936;-77
2022/03/16 02:03:52;;;;;;;118.47;66.40;;;;;;;4.18;81.01;101400.13;1683988;84;28118;-79
2022/03/16 02:06:19;;;;;;;124.75;70.90;;;;;;;4.19;80.97;101393.88;1682982;84;25842;-77
2022/03/16 02:08:45;;;;;;;118.93;66.33;;;;;;;4.20;81.00;101384.46;1692661;83;26639;-78
2022/03/16 02:11:11;;;;;;;121.07;66.35;;;;;;;4.17;80.93;101380.72;1675138;84;26254;-77
2022/03/16 02:13:38;;;;;;;120.02;65.90;;;;;;;4.16;80.94;101374.23;1679768;84;26153;-78
2022/03/16 02:16:05;;;;;;;117.80;65.35;;;;;;;4.13;80.99;101373.17;1673806;84;27516;-79
2022/03/16 02:18:31;;;;;;;112.97;66.65;;;;;;;4.13;81.19;101383.78;1673835;84;25904;-79
2022/03/16 02:21:00;;;;;;;113.75;64.72;;;;;;;4.13;81.24;101385.92;1680714;84;26182;-78
2022/03/16 02:23:26;;;;;;;104.58;59.33;;;;;;;4.15;81.26;101391.12;1679726;83;25980;-77
2022/03/16 02:25:55;;;;;;;113.03;61.63;;;;;;;4.12;81.56;101383.41;1688745;84;26284;-78
2022/03/16 02:28:25;;;;;;;116.85;64.27;;;;;;;4.12;81.53;101391.36;1686558;84;27810;-78
2022/03/16 02:30:52;;;;;;;110.72;60.48;;;;;;;4.11;81.55;101394.48;1681944;84;25857;-78
2022/03/16 02:33:18;;;;;;;112.17;61.23;;;;;;;4.12;81.96;101386.06;1688047;83;25909;-78
2022/03/16 02:35:45;;;;;;;109.17;60.12;;;;;;;4.13;82.02;101381.95;1686824;84;25926;-77
2022/03/16 02:38:12;;;;;;;113.32;59.90;;;;;;;4.14;81.93;101384.97;1686051;84;25814;-78
2022/03/16 02:40:38;;;;;;;107.58;60.15;;;;;;;4.15;81.96;101387.96;1680220;84;27466;-79
2022/03/16 02:43:04;;;;;;;109.22;60.10;;;;;;;4.17;81.97;101387.86;1686944;83;26541;-77
2022/03/16 02:45:31;;;;;;;111.08;63.73;;;;;;;4.17;82.01;101380.72;1685056;84;25770;-76
2022/03/16 02:47:57;;;;;;;110.90;62.38;;;;;;;4.17;81.96;101381.23;1703175;82;25750;-77
2022/03/16 02:50:23;;;;;;;102.47;60.05;;;;;;;4.19;81.92;101387.25;1696655;82;25985;-77
2022/03/16 02:52:50;;;;;;;103.90;56.33;;;;;;;4.20;82.20;101395.55;1697401;82;27475;-81
2022/03/16 02:55:16;;;;;;;101.55;58.55;;;;;;;4.21;82.14;101395.92;1702299;82;25819;-80
2022/03/16 02:57:42;;;;;;;107.05;59.00;;;;;;;4.23;82.09;101391.33;1700800;82;25843;-77
2022/03/16 03:00:11;;;;;;;99.80;55.98;;;;;;;4.23;82.17;101383.38;1698870;82;26173;-78
2022/03/16 03:02:37;;;;;;;98.62;57.88;;;;;;;4.22;82.39;101383.84;1708101;82;25966;-78
2022/03/16 03:05:04;;;;;;;106.17;55.65;;;;;;;4.23;82.26;101385.55;1698635;82;27520;-78
2022/03/16 03:07:31;;;;;;;99.05;53.92;;;;;;;4.23;82.30;101382.89;1694370;82;25879;-77
2022/03/16 03:09:57;;;;;;;102.20;56.08;;;;;;;4.26;82.39;101379.12;1705761;82;25834;-76
2022/03/16 03:12:23;;;;;;;93.22;55.23;;;;;;;4.26;82.19;101372.02;1696790;82;26521;-78
2022/03/16 03:14:49;;;;;;;97.82;54.60;;;;;;;4.27;82.18;101368.41;1698935;82;26133;-77
2022/03/16 03:17:15;;;;;;;100.02;56.30;;;;;;;4.29;82.19;101370.45;1690963;82;27475;-78
2022/03/16 03:19:43;;;;;;;97.65;54.38;;;;;;;4.31;82.14;101371.64;1705109;82;26000;-77
2022/03/16 03:22:10;;;;;;;98.60;53.20;;;;;;;4.34;82.07;101378.84;1704192;82;26525;-79
2022/03/16 03:24:36;;;;;;;93.00;50.08;;;;;;;4.38;81.89;101378.12;1700073;82;25859;-78
2022/03/16 03:27:03;;;;;;;90.25;52.80;;;;;;;4.41;81.93;101380.50;1704483;82;26351;-78
2022/03/16 03:29:29;;;;;;;93.87;52.48;;;;;;;4.43;81.80;101378.55;1699030;82;27431;-77
2022/03/16 03:31:55;;;;;;;91.80;50.98;;;;;;;4.44;81.79;101380.25;1697683;82;25906;-79
2022/03/16 03:34:21;;;;;;;90.72;50.20;;;;;;;4.45;81.73;101384.09;1698329;82;25306;-78
2022/03/16 03:36:47;;;;;;;88.37;49.13;;;;;;;4.45;81.61;101393.37;1699739;82;25898;-78
2022/03/16 03:39:13;;;;;;;91.40;51.10;;;;;;;4.45;81.73;101389.40;1701005;82;25915;-78
2022/03/16 03:41:40;;;;;;;98.27;53.23;;;;;;;4.45;81.65;101387.23;1702235;82;27536;-78
2022/03/16 03:44:06;;;;;;;92.33;54.20;;;;;;;4.47;81.53;101392.77;1696273;82;25833;-79
2022/03/16 03:46:32;;;;;;;94.65;54.13;;;;;;;4.51;81.48;101390.72;1693550;83;25758;-78
2022/03/16 03:48:59;;;;;;;86.82;51.23;;;;;;;4.52;81.36;101391.91;1689771;83;26357;-78
2022/03/16 03:51:25;;;;;;;100.18;53.87;;;;;;;4.55;81.22;101394.80;1697841;83;26679;-77
2022/03/16 03:53:51;;;;;;;92.10;51.77;;;;;;;4.57;81.19;101396.83;1685135;83;27473;-79
2022/03/16 03:56:17;;;;;;;90.90;55.12;;;;;;;4.57;81.02;101391.52;1703434;83;25830;-78
2022/03/16 03:58:45;;;;;;;93.10;53.13;;;;;;;4.56;80.97;101390.67;1687720;83;25976;-78
2022/03/16 04:01:11;;;;;;;80.57;49.00;;;;;;;4.54;80.85;101392.61;1693769;83;25952;-78
2022/03/16 04:03:37;;;;;;;89.03;50.03;;;;;;;4.51;81.05;101389.39;1695464;83;26501;-79
2022/03/16 04:06:03;;;;;;;89.77;52.00;;;;;;;4.45;81.12;101387.23;1702882;83;28292;-78
2022/03/16 04:08:29;;;;;;;89.97;49.55;;;;;;;4.40;81.25;101383.66;1704500;82;26358;-78
2022/03/16 04:10:56;;;;;;;89.13;51.80;;;;;;;4.36;81.55;101379.55;1697980;83;25275;-78
2022/03/16 04:13:22;;;;;;;88.20;48.83;;;;;;;4.33;81.35;101382.48;1690262;82;26243;-79
2022/03/16 04:15:48;;;;;;;88.82;49.95;;;;;;;4.30;81.40;101388.02;1705110;83;26891;-78
2022/03/16 04:18:14;;;;;;;82.27;47.85;;;;;;;4.28;81.54;101385.14;1700256;83;27526;-81
2022/03/16 04:20:40;;;;;;;81.63;48.50;;;;;;;4.27;81.87;101387.45;1691822;83;25952;-77
2022/03/16 04:23:07;;;;;;;83.03;48.87;;;;;;;4.24;82.00;101387.69;1696901;81;25967;-78
2022/03/16 04:25:33;;;;;;;79.00;46.23;;;;;;;4.22;82.03;101386.98;1697998;83;25820;-78
2022/03/16 04:28:02;;;;;;;84.55;47.98;;;;;;;4.20;82.20;101384.94;1690139;83;25718;-77
2022/03/16 04:30:28;;;;;;;81.30;47.05;;;;;;;4.19;82.19;101389.90;1701827;83;27473;-79
2022/03/16 04:32:55;;;;;;;83.00;48.15;;;;;;;4.18;82.20;101396.16;1703831;83;25909;-78
2022/03/16 04:35:21;;;;;;;75.55;45.60;;;;;;;4.17;82.30;101395.81;1702475;83;25768;-77
2022/03/16 04:37:48;;;;;;;83.70;45.38;;;;;;;4.17;82.46;101398.47;1703166;82;25780;-79
2022/03/16 04:40:14;;;;;;;78.28;44.08;;;;;;;4.16;82.50;101398.09;1694390;83;26014;-79
2022/03/16 04:42:40;;;;;;;80.30;43.55;;;;;;;4.16;82.37;101392.31;1690490;82;27536;-79
2022/03/16 04:45:08;;;;;;;79.92;45.98;;;;;;;4.16;82.34;101402.07;1703814;82;26017;-79
2022/03/16 04:47:34;;;;;;;80.53;45.17;;;;;;;4.18;82.55;101400.98;1707106;82;26755;-77
2022/03/16 04:50:00;;;;;;;77.20;42.67;;;;;;;4.17;82.33;101399.79;1694467;83;25988;-78
2022/03/16 04:52:27;;;;;;;76.02;43.15;;;;;;;4.18;82.64;101397.48;1698729;81;25815;-77
2022/03/16 04:54:54;;;;;;;80.30;45.58;;;;;;;4.18;82.57;101404.96;1708808;82;27478;-79
2022/03/16 04:57:20;;;;;;;82.35;45.15;;;;;;;4.18;82.37;101402.78;1712161;82;26419;-80
2022/03/16 04:59:46;;;;;;;82.60;45.85;;;;;;;4.19;82.13;101408.45;1715323;82;25873;-78
2022/03/16 05:02:12;;;;;;;76.42;43.25;;;;;;;4.16;82.15;101408.22;1711464;82;25788;-80
2022/03/16 05:04:38;;;;;;;74.77;43.05;;;;;;;4.17;82.10;101414.38;1695679;83;25995;-79
2022/03/16 05:07:05;;;;;;;76.50;43.23;;;;;;;4.14;82.34;101411.48;1703231;82;27659;-79
2022/03/16 05:09:32;;;;;;;71.87;42.33;;;;;;;4.13;82.24;101412.95;1689531;84;26068;-79
2022/03/16 05:12:00;;;;;;;73.52;42.98;;;;;;;4.11;82.38;101417.50;1690786;83;26571;-78
2022/03/16 05:14:26;;;;;;;74.90;42.95;;;;;;;4.07;82.60;101417.40;1693625;83;25792;-78
2022/03/16 05:16:53;;;;;;;68.02;41.98;;;;;;;4.08;82.55;101420.42;1685577;83;25883;-79
2022/03/16 05:19:23;;;;;;;72.60;41.65;;;;;;;4.06;82.89;101421.88;1698315;83;27455;-77
2022/03/16 05:21:49;;;;;;;71.33;39.40;;;;;;;4.05;82.80;101424.16;1694475;83;25912;-80
2022/03/16 05:24:15;;;;;;;68.78;41.18;;;;;;;4.06;82.80;101428.98;1684470;81;26040;-77
2022/03/16 05:26:42;;;;;;;66.25;39.23;;;;;;;4.05;82.89;101422.83;1687437;83;25867;-78
2022/03/16 05:29:08;;;;;;;68.83;39.55;;;;;;;4.06;83.03;101427.19;1686335;83;25858;-79
2022/03/16 05:31:34;;;;;;;70.45;42.70;;;;;;;4.04;83.34;101426.47;1692966;83;28250;-78
2022/03/16 05:34:00;;;;;;;70.15;41.70;;;;;;;4.02;83.27;101431.02;1690421;83;25844;-78
2022/03/16 05:36:26;;;;;;;69.22;40.15;;;;;;;4.02;83.49;101429.70;1675927;84;25819;-78
2022/03/16 05:38:53;;;;;;;74.00;42.78;;;;;;;4.01;83.57;101422.73;1709139;82;25932;-78
2022/03/16 05:41:19;;;;;;;72.20;41.10;;;;;;;4.01;83.81;101424.53;1688252;84;26620;-82
2022/03/16 05:43:46;;;;;;;70.45;40.40;;;;;;;4.01;84.20;101425.38;1688493;84;27492;-76
2022/03/16 05:46:12;;;;;;;77.27;44.40;;;;;;;4.03;84.37;101434.52;1701357;82;25905;-78
2022/03/16 05:48:38;;;;;;;77.92;44.93;;;;;;;4.04;84.27;101430.45;1699671;83;25905;-77
2022/03/16 05:51:04;;;;;;;73.07;42.08;;;;;;;4.08;84.05;101441.16;1703019;83;25906;-78
2022/03/16 05:53:30;;;;;;;79.22;46.68;;;;;;;4.13;84.17;101448.23;1711069;81;26448;-80
2022/03/16 05:55:57;;;;;;;80.67;45.50;;;;;;;4.19;83.94;101450.37;1715994;82;27452;-79
2022/03/16 05:58:23;;;;;;;73.22;43.23;;;;;;;4.25;83.79;101458.33;1699338;83;25853;-78
2022/03/16 06:00:49;;;;;;;75.12;43.78;;;;;;;4.31;83.73;101469.28;1693724;84;25994;-79
2022/03/16 06:03:15;;;;;;;86.08;47.70;;;;;;;4.36;83.58;101465.75;1710602;82;26114;-79
2022/03/16 06:05:41;;;;;;;83.33;47.55;;;;;;;4.42;83.38;101470.58;1710211;82;25835;-78
2022/03/16 06:08:07;;;;;;;78.83;45.23;;;;;;;4.47;83.48;101478.98;1708109;82;27451;-79
2022/03/16 06:10:34;;;;;;;79.45;46.48;;;;;;;4.51;83.18;101480.41;1714317;82;25886;-82
2022/03/16 06:13:05;;;;;;;80.10;45.35;;;;;;;4.56;83.15;101487.99;1719599;82;26731;-77
2022/03/16 06:15:41;;;;;;;88.90;49.00;;;;;;;4.59;83.06;101487.27;1716710;82;25328;-80
2022/03/16 06:18:09;;;;;;;79.58;45.80;;;;;;;4.63;83.01;101491.36;1712169;82;26521;-79
2022/03/16 06:20:36;;;;;;;76.70;44.53;;;;;;;4.66;82.92;101496.39;1711399;82;27463;-79
2022/03/16 06:23:09;;;;;;;77.65;47.05;;;;;;;4.67;82.83;101498.09;1715017;82;26138;-79
2022/03/16 06:25:33;;;;;;;76.90;45.30;;;;;;;4.67;82.77;101500.74;1714393;82;25778;-80
2022/03/16 06:28:00;;;;;;;77.78;45.20;;;;;;;4.66;82.77;101497.72;1713986;82;26007;-79
2022/03/16 06:30:26;;;;;;;73.05;43.20;;;;;;;4.68;82.78;101501.59;1712440;82;25832;-80
2022/03/16 06:32:53;;;;;;;79.25;46.10;;;;;;;4.68;82.76;101502.92;1714600;82;27505;-79
2022/03/16 06:35:19;;;;;;;88.65;49.13;;;;;;;4.69;82.82;101504.59;1715510;82;25331;-79
2022/03/16 06:37:46;;;;;;;65.80;40.50;;;;;;;4.68;82.83;101513.02;1702952;82;25760;-78
2022/03/16 06:40:14;;;;;;;77.08;47.10;;;;;;;4.68;82.78;101506.39;1714542;82;26620;-78
2022/03/16 06:42:53;;;;;;;81.63;46.92;;;;;;;4.68;82.68;101503.73;1701264;83;26500;-79
2022/03/16 06:45:20;;;;;;;85.20;49.58;;;;;;;4.71;82.55;101509.28;1713429;82;28071;-78
2022/03/16 06:47:46;;;;;;;84.55;50.55;;;;;;;4.72;82.38;101503.02;1703158;82;25941;-79
2022/03/16 06:50:13;;;;;;;82.72;50.40;;;;;;;4.78;82.12;101510.95;1713974;82;26012;-79
2022/03/16 06:52:40;;;;;;;75.55;46.05;;;;;;;4.83;81.55;101513.59;1696964;83;26568;-77
2022/03/16 06:55:09;;;;;;;71.85;42.30;;;;;;;4.90;81.55;101508.61;1709262;82;25927;-78
2022/03/16 06:57:35;;;;;;;79.25;47.23;;;;;;;4.98;80.94;101512.79;1695816;83;27529;-77
2022/03/16 07:00:05;;;;;;;88.47;52.55;;;;;;;5.03;80.64;101510.09;1708832;82;25935;-79
2022/03/16 07:02:31;;;;;;;88.85;53.00;;;;;;;5.14;81.01;101518.00;1685631;82;25814;-79
2022/03/16 07:04:58;;;;;;;81.37;49.70;;;;;;;5.27;80.57;101514.67;1711410;82;25776;-77
2022/03/16 07:07:26;;;;;;;86.28;50.48;;;;;;;5.39;80.15;101513.61;1710149;82;26731;-81
2022/03/16 07:09:55;;;;;;;89.50;53.00;;;;;;;5.48;79.44;101512.83;1703862;82;27474;-79
2022/03/16 07:12:29;;;;;;;89.80;54.33;;;;;;;5.61;78.84;101513.09;1704954;82;25877;-78
2022/03/16 07:14:55;;;;;;;87.45;51.28;;;;;;;5.68;78.07;101514.25;1711344;82;25594;-78
2022/03/16 07:17:22;;;;;;;88.35;52.05;;;;;;;5.80;77.97;101522.00;1693563;83;25792;-80
2022/03/16 07:19:48;;;;;;;81.35;49.85;;;;;;;5.91;77.72;101524.59;1701740;82;25914;-77
2022/03/16 07:22:15;;;;;;;84.50;51.18;;;;;;;6.03;77.10;101524.02;1701695;82;27454;-80
2022/03/16 07:24:42;;;;;;;82.97;49.38;;;;;;;6.13;76.58;101528.39;1712690;82;25910;-79
2022/03/16 07:27:08;;;;;;;83.45;50.08;;;;;;;6.25;75.78;101529.11;1713326;82;26235;-79
2022/03/16 07:29:34;;;;;;;83.72;49.75;;;;;;;6.33;75.37;101532.43;1697222;83;25845;-78
2022/03/16 07:32:00;;;;;;;87.78;52.75;;;;;;;6.41;75.07;101536.09;1708734;81;25865;-78
2022/03/16 07:34:27;;;;;;;79.25;48.13;;;;;;;6.50;75.02;101537.09;1703078;82;27556;-78
2022/03/16 07:36:53;;;;;;;84.13;51.30;;;;;;;6.57;73.49;101543.04;1712692;82;26773;-79
2022/03/16 07:39:19;;;;;;;82.12;50.15;;;;;;;6.61;72.19;101536.45;1697619;83;25992;-78
2022/03/16 07:41:46;;;;;;;82.65;48.75;;;;;;;6.69;72.75;101535.27;1687821;84;26665;-78
2022/03/16 07:44:12;;;;;;;81.92;51.63;;;;;;;6.76;71.78;101539.06;1691200;84;25785;-79
2022/03/16 07:46:38;;;;;;;92.97;51.42;;;;;;;6.83;72.00;101540.20;1699452;83;28366;-81
2022/03/16 07:49:04;;;;;;;78.50;47.55;;;;;;;6.91;72.10;101538.15;1675514;84;25819;-79
2022/03/16 07:51:31;;;;;;;87.05;51.02;;;;;;;6.98;70.68;101533.95;1674526;84;26022;-77
2022/03/16 07:53:57;;;;;;;75.42;47.17;;;;;;;7.03;70.94;101535.72;1692607;83;25801;-78
2022/03/16 07:56:23;;;;;;;80.85;48.50;;;;;;;7.08;69.71;101535.30;1699523;83;25688;-77
2022/03/16 07:58:51;;;;;;;82.40;51.60;;;;;;;7.11;69.13;101536.32;1701953;83;27474;-77
2022/03/16 08:01:18;;;;;;;78.45;48.95;;;;;;;7.14;68.65;101545.37;1697874;83;25957;-78
2022/03/16 08:03:44;;;;;;;80.65;47.53;;;;;;;7.17;69.14;101544.59;1672003;84;25867;-78
2022/03/16 08:06:12;;;;;;;81.95;49.03;;;;;;;7.22;68.16;101546.35;1671195;83;25857;-78
2022/03/16 08:08:39;;;;;;;83.65;49.95;;;;;;;7.29;68.35;101543.44;1669201;84;25813;-77
2022/03/16 08:11:07;;;;;;;77.85;48.33;;;;;;;7.33;68.37;101548.87;1673792;84;28233;-78
2022/03/16 08:13:36;;;;;;;78.22;50.15;;;;;;;7.38;68.21;101547.08;1669599;84;25937;-79
2022/03/16 08:16:04;;;;;;;83.25;48.42;;;;;;;7.42;67.76;101555.16;1676000;84;25848;-79
2022/03/16 08:18:30;;;;;;;82.60;49.83;;;;;;;7.45;66.99;101553.04;1666407;84;26026;-78
2022/03/16 08:20:57;;;;;;;82.62;48.55;;;;;;;7.48;67.44;101554.10;1678691;84;25794;-78
2022/03/16 08:23:24;;;;;;;81.95;49.70;;;;;;;7.52;66.81;101554.16;1663896;84;28260;-77
2022/03/16 08:25:50;;;;;;;74.58;45.40;;;;;;;7.55;66.17;101553.85;1671214;84;25921;-78
2022/03/16 08:28:16;;;;;;;76.10;48.73;;;;;;;7.60;66.44;101554.75;1678676;84;25886;-78
2022/03/16 08:30:42;;;;;;;76.50;48.65;;;;;;;7.65;65.51;101553.36;1677095;84;26530;-78
2022/03/16 08:33:09;;;;;;;78.12;48.38;;;;;;;7.71;66.37;101548.77;1670631;84;26369;-78
2022/03/16 08:35:35;;;;;;;74.20;46.08;;;;;;;7.79;65.17;101550.70;1679170;84;27861;-78
2022/03/16 08:38:01;;;;;;;76.40;47.53;;;;;;;7.88;64.76;101548.98;1669653;84;25828;-78
2022/03/16 08:40:28;;;;;;;77.80;46.80;;;;;;;7.99;65.10;101558.98;1682462;84;36466;-77
2022/03/16 08:42:54;;;;;;;79.53;47.95;;;;;;;8.09;64.93;101557.11;1673268;83;26069;-79
2022/03/16 08:45:20;;;;;;;75.83;47.13;;;;;;;8.18;64.97;101562.91;1669875;84;25920;-79
2022/03/16 08:47:46;;;;;;;77.78;47.50;;;;;;;8.29;64.15;101567.23;1704123;82;28090;-77
2022/03/16 08:50:13;;;;;;;75.67;46.35;;;;;;;8.40;64.40;101567.04;1685644;84;26724;-78
2022/03/16 08:52:39;;;;;;;76.35;47.30;;;;;;;8.50;63.85;101571.33;1678074;84;25928;-76
2022/03/16 08:55:06;;;;;;;69.53;42.88;;;;;;;8.59;63.00;101581.61;1679271;83;26602;-78
2022/03/16 08:57:33;;;;;;;74.82;46.58;;;;;;;8.64;61.88;101569.96;1702906;83;26383;-78
2022/03/16 08:59:59;;;;;;;71.37;45.70;;;;;;;8.73;62.41;101569.55;1692888;83;26860;-78
2022/03/16 09:02:26;;;;;;;72.62;45.23;;;;;;;8.80;62.43;101574.16;1697415;81;25837;-78
2022/03/16 09:04:52;;;;;;;71.47;43.90;;;;;;;8.89;62.10;101576.41;1679193;84;25890;-78
2022/03/16 09:07:18;;;;;;;72.53;46.15;;;;;;;8.96;61.73;101575.63;1685113;84;25871;-77
2022/03/16 09:09:44;;;;;;;67.50;43.85;;;;;;;9.05;61.29;101583.23;1682662;84;25768;-77
2022/03/16 09:12:11;;;;;;;71.82;44.08;;;;;;;9.10;60.85;101588.48;1680478;84;27460;-78
2022/03/16 09:14:39;;;;;;;67.53;43.60;;;;;;;9.15;60.52;101587.50;1678906;84;25845;-78
2022/03/16 09:17:07;;;;;;;66.28;42.90;;;;;;;9.21;59.76;101592.27;1680650;84;26515;-76
2022/03/16 09:19:34;;;;;;;66.65;42.80;;;;;;;9.26;59.75;101594.45;1685061;84;26787;-78
2022/03/16 09:22:02;;;;;;;69.15;42.35;;;;;;;9.32;59.45;101597.87;1684435;84;25828;-77
2022/03/16 09:24:28;;;;;;;75.62;45.30;;;;;;;9.39;58.72;101592.22;1684733;84;27533;-78
2022/03/16 09:26:58;;;;;;;69.70;44.70;;;;;;;9.46;58.83;101597.30;1683354;84;26440;-78
2022/03/16 09:29:23;;;;;;;66.80;43.30;;;;;;;9.55;58.45;101591.52;1683655;84;25889;-78
2022/03/16 09:31:49;;;;;;;67.67;43.15;;;;;;;9.67;57.97;101591.59;1683524;84;25955;-78
2022/03/16 09:34:15;;;;;;;65.42;41.58;;;;;;;9.80;57.95;101594.20;1684340;84;25809;-77
2022/03/16 09:36:42;;;;;;;70.62;45.35;;;;;;;9.98;57.52;101595.48;1682869;84;28704;-78
2022/03/16 09:39:10;;;;;;;66.53;39.85;;;;;;;10.12;56.77;101600.27;1682581;84;26004;-77
2022/03/16 09:41:36;;;;;;;70.12;40.43;;;;;;;10.28;56.78;101598.18;1683899;84;25862;-78
2022/03/16 09:44:04;;;;;;;68.55;40.03;;;;;;;10.42;56.18;101606.94;1685932;84;25881;-78
2022/03/16 09:46:34;;;;;;;64.77;39.85;;;;;;;10.53;55.85;101602.14;1686035;82;26603;-77
2022/03/16 09:49:01;;;;;;;67.58;42.35;;;;;;;10.71;55.80;101604.71;1695097;83;28261;-78
2022/03/16 09:51:31;;;;;;;65.20;41.48;;;;;;;10.88;56.13;101603.23;1678903;84;25971;-79
2022/03/16 09:53:56;;;;;;;68.10;40.33;;;;;;;11.03;55.82;101607.47;1686263;83;25612;-79
2022/03/16 09:56:23;;;;;;;57.75;38.75;;;;;;;11.19;54.52;101610.16;1688360;84;26169;-78
2022/03/16 09:58:49;;;;;;;58.55;39.33;;;;;;;11.32;54.64;101608.32;1685734;84;25903;-78
2022/03/16 10:01:16;;;;;;;60.58;38.15;;;;;;;11.40;54.50;101609.66;1688997;84;28217;-79
2022/03/16 10:03:48;;;;;;;62.30;39.65;;;;;;;11.44;53.34;101620.41;1689152;81;26350;-79
2022/03/16 10:06:17;;;;;;;55.50;37.73;;;;;;;11.45;53.35;101615.37;1688396;83;25783;-79
2022/03/16 10:13:13;;;;;;;56.73;38.48;;;;;;;11.48;53.19;101613.70;1696755;84;25946;-77
2022/03/16 10:14:14;;;;;;;64.07;40.90;;;;;;;11.63;52.51;101619.55;1707396;82;27531;-78
2022/03/16 10:19:54;;;;;;;60.00;37.08;;;;;;;11.94;50.93;101623.75;1693948;83;25913;-76
2022/03/16 10:22:37;;;;;;;58.75;35.70;;;;;;;12.08;50.49;101624.91;1706343;82;26107;-76
2022/03/16 10:25:05;;;;;;;50.65;34.20;;;;;;;12.17;47.82;101621.16;1698088;83;26136;-78
2022/03/16 10:27:36;;;;;;;56.50;37.93;;;;;;;12.27;49.29;101630.70;1687187;84;27522;-78
2022/03/16 10:30:08;;;;;;;;;;;;;;;12.30;49.85;101625.00;1691305;84;25756;-78
2022/03/16 10:32:32;;;;;;;54.55;35.10;;;;;;;12.30;48.62;101627.68;1679567;84;25787;-79
2022/03/16 10:35:07;;;;;;;58.25;37.93;;;;;;;12.31;48.42;101625.34;1706447;83;26525;-80
2022/03/16 10:37:36;;;;;;;53.55;35.85;;;;;;;12.36;49.08;101629.67;1704095;82;26007;-79
2022/03/16 10:40:17;;;;;;;57.05;37.48;;;;;;;12.47;48.41;101631.67;1714630;82;27551;-78
2022/03/16 10:48:20;;;;;;;59.48;37.73;;;;;;;12.61;48.87;101637.64;1705942;82;26536;-78
2022/03/16 10:50:50;;;;;;;55.12;35.95;;;;;;;12.74;47.52;101645.99;1702074;83;25769;-79
2022/03/16 10:53:18;;;;;;;52.35;36.17;;;;;;;12.72;47.12;101642.14;1699092;83;27516;-78
2022/03/16 10:55:47;;;;;;;53.85;35.68;;;;;;;12.69;46.76;101653.73;1701514;83;26484;-76
2022/03/16 10:58:15;;;;;;;52.50;35.58;;;;;;;12.65;45.45;101646.53;1690208;83;25971;-76
2022/03/16 11:00:42;;;;;;;60.33;37.88;;;;;;;12.55;44.94;101645.06;1693432;83;26226;-78
2022/03/16 11:03:14;;;;;;;53.75;37.38;;;;;;;12.48;44.78;101654.33;1696342;83;25926;-76
2022/03/16 11:05:39;;;;;;;48.68;33.73;;;;;;;12.43;44.73;101659.88;1672567;84;26943;-78
2022/03/16 11:08:07;;;;;;;55.10;34.98;;;;;;;12.33;43.97;101654.22;1686553;83;25295;-78
2022/03/16 11:10:36;;;;;;;56.05;36.53;;;;;;;12.29;44.00;101646.67;1689898;84;25856;-77
2022/03/16 11:15:55;;;;;;;59.83;38.10;;;;;;;12.23;44.16;101656.23;1695585;84;25821;-78
2022/03/16 11:18:23;;;;;;;58.30;36.73;;;;;;;12.24;45.51;101662.45;1664389;86;28936;-77
2022/03/16 11:21:00;;;;;;;54.58;36.77;;;;;;;12.24;44.17;101657.93;1665970;84;26581;-77
2022/03/16 11:26:43;;;;;;;54.20;35.52;;;;;;;12.21;45.02;101656.91;1678979;83;25832;-78
2022/03/16 11:29:58;;;;;;;55.75;37.85;;;;;;;12.29;43.17;101675.72;1691245;83;25980;-77
2022/03/16 11:32:31;;;;;;;60.58;39.53;;;;;;;12.31;44.54;101659.42;1674609;84;27449;-78